Randolph Air Force Base
KRND : now visible

Airfield :











YOU CAN JOIN US ON...

 
LOGIN :

Register | Disclaimer

   EN    FR    IT 

 









Legend :    VFR   Marginal VFR   IFR   Intensive IFR   Very Intensive IFR
Visi :
Ceiling :
>= 8 km
>= 3000ft
5 to 8 km
1000 to 3000 ft
1500m to 5 km
500 to 1000 ft
800 to 1500m
200 to 500 ft
< 800m
< 200 ft
Symbols :   Thunderstorms  Fog  Heavy snow  Heavy precipitations  Wind > 20 kt






- Airport Elevation : 761 ft


KRND - Randolph Air Force Base

CURRENT METAR :
  • 072106Z AUTO 18005KT 10SM BKN032 28/20 A2992 RMK AO2 SLP125 $

EXPIRED METARs :
  • 072056Z AUTO 20006KT 10SM FEW026 SCT033 28/19 A2992 RMK AO2 SLP125 T02840193 57027 $
  • 072030Z 20006KT 10SM SCT024 BKN031 28/21 A2993 RMK SLP128 $
  • 071956Z 19005KT 10SM FEW021 OVC028 27/22 A2994 RMK AO2A SLP132 T02710186 $
  • 071944Z 19007KT 10SM FEW020 OVC029 27/19 A2995 RMK AO2A CIG 028 RWY33R SLP135 $
  • 071856Z 22008KT 10SM BKN020 27/22 A2997 RMK AO2A SLP142 T02680184 $
  • 071836Z 22008KT 10SM BKN020 BKN250 26/21 A2998 RMK CIG 014 RWY33R SLP145 $

TAF TAF KRND
Valid from the 07 at 16:00 until the 08 at 22:00 UTC


071557Z 0716/0822 20006KT 9000 BR BKN008 OVC250 QNH3001INS
BECMG 0716/0717 21009KT 9999 NSW FEW008 BKN014 BKN250 QNH2995INS
BECMG 0717/0718 20009KT 9999 SCT020 BKN250 QNH2985INS
BECMG 0802/0803 VRB06KT 9000 BR BKN018 BKN250 QNH2990INS
BECMG 0807/0808 VRB06KT 4800 BR OVC002 QNH2988INS
BECMG 0817/0818 21009KT 9999 NSW SCT015 BKN140 BKN250 QNH2991INS TX30/0721Z TN21/0812Z LAST NO AMDS AFT 0721 NEXT 0812



MET'MAP, your aeronautical weather chart ! - Copyright ORBIFLY December 2007 - Disclaimer

ORBIFLY MET'MAP TEAM :

Programming & Development : Alexandra Zaïnal
Concept & original design : Baudouin d'Aumeries
Assistance for programming : Marc-Olivier Méhu
Technical & hardware support : Manuel Goepfert

Contact : metmap@orbifly.com




SOURCES & CREDITS :

   NOAA       Earth
Advisory